sensor_id;sensor_type;location;lat;lon;timestamp;temperature;humidity
12839;DHT22;6486;51.034;5.262;2022-09-17T00:01:04;12.00;76.30
12839;DHT22;6486;51.034;5.262;2022-09-17T00:03:30;12.00;76.30
12839;DHT22;6486;51.034;5.262;2022-09-17T00:06:03;11.90;76.40
12839;DHT22;6486;51.034;5.262;2022-09-17T00:08:30;11.90;76.60
12839;DHT22;6486;51.034;5.262;2022-09-17T00:10:55;11.90;76.70
12839;DHT22;6486;51.034;5.262;2022-09-17T00:13:21;11.80;76.70
12839;DHT22;6486;51.034;5.262;2022-09-17T00:15:47;11.80;76.80
12839;DHT22;6486;51.034;5.262;2022-09-17T00:18:15;11.90;77.60
12839;DHT22;6486;51.034;5.262;2022-09-17T00:20:42;11.80;77.00
12839;DHT22;6486;51.034;5.262;2022-09-17T00:23:09;11.80;77.00
12839;DHT22;6486;51.034;5.262;2022-09-17T00:25:44;11.80;77.10
12839;DHT22;6486;51.034;5.262;2022-09-17T00:28:12;11.80;77.00
12839;DHT22;6486;51.034;5.262;2022-09-17T00:30:42;11.80;77.10
12839;DHT22;6486;51.034;5.262;2022-09-17T00:33:14;11.80;77.00
12839;DHT22;6486;51.034;5.262;2022-09-17T00:35:40;11.90;77.00
12839;DHT22;6486;51.034;5.262;2022-09-17T00:38:05;11.80;77.00
12839;DHT22;6486;51.034;5.262;2022-09-17T00:40:31;11.80;77.10
12839;DHT22;6486;51.034;5.262;2022-09-17T00:42:57;11.80;77.20
12839;DHT22;6486;51.034;5.262;2022-09-17T00:45:23;11.80;77.20
12839;DHT22;6486;51.034;5.262;2022-09-17T00:48:01;11.90;77.30
12839;DHT22;6486;51.034;5.262;2022-09-17T00:50:38;11.90;77.30
12839;DHT22;6486;51.034;5.262;2022-09-17T00:53:15;11.90;77.20
12839;DHT22;6486;51.034;5.262;2022-09-17T00:55:46;11.80;77.20
12839;DHT22;6486;51.034;5.262;2022-09-17T00:58:14;11.80;77.50
12839;DHT22;6486;51.034;5.262;2022-09-17T01:00:41;11.80;77.60
12839;DHT22;6486;51.034;5.262;2022-09-17T01:03:06;11.80;77.60
12839;DHT22;6486;51.034;5.262;2022-09-17T01:06:09;11.90;77.60
12839;DHT22;6486;51.034;5.262;2022-09-17T01:08:45;11.90;77.60
12839;DHT22;6486;51.034;5.262;2022-09-17T01:16:36;11.90;77.80
12839;DHT22;6486;51.034;5.262;2022-09-17T01:21:51;11.90;77.90
12839;DHT22;6486;51.034;5.262;2022-09-17T01:24:24;12.00;77.90
12839;DHT22;6486;51.034;5.262;2022-09-17T01:30:04;12.00;78.50
12839;DHT22;6486;51.034;5.262;2022-09-17T01:35:20;12.10;77.80
12839;DHT22;6486;51.034;5.262;2022-09-17T01:38:01;12.10;77.80
12839;DHT22;6486;51.034;5.262;2022-09-17T01:45:51;12.10;77.60
12839;DHT22;6486;51.034;5.262;2022-09-17T01:48:19;12.10;77.60
12839;DHT22;6486;51.034;5.262;2022-09-17T01:50:55;12.10;77.60
12839;DHT22;6486;51.034;5.262;2022-09-17T01:53:27;12.10;77.70
12839;DHT22;6486;51.034;5.262;2022-09-17T01:55:54;12.10;77.70
12839;DHT22;6486;51.034;5.262;2022-09-17T01:58:31;12.10;77.80
12839;DHT22;6486;51.034;5.262;2022-09-17T02:01:01;12.20;78.00
12839;DHT22;6486;51.034;5.262;2022-09-17T02:03:41;12.20;78.00
12839;DHT22;6486;51.034;5.262;2022-09-17T02:06:17;12.20;78.00
12839;DHT22;6486;51.034;5.262;2022-09-17T02:09:07;12.20;78.10
12839;DHT22;6486;51.034;5.262;2022-09-17T02:11:36;12.30;78.20
12839;DHT22;6486;51.034;5.262;2022-09-17T02:14:12;12.30;78.30
12839;DHT22;6486;51.034;5.262;2022-09-17T02:16:45;12.30;78.30
12839;DHT22;6486;51.034;5.262;2022-09-17T02:19:42;12.30;78.40
12839;DHT22;6486;51.034;5.262;2022-09-17T02:22:27;12.40;78.50
12839;DHT22;6486;51.034;5.262;2022-09-17T02:30:18;12.50;78.50
12839;DHT22;6486;51.034;5.262;2022-09-17T02:32:44;12.50;78.60
12839;DHT22;6486;51.034;5.262;2022-09-17T02:35:10;12.50;78.70
12839;DHT22;6486;51.034;5.262;2022-09-17T02:37:39;12.40;79.60
12839;DHT22;6486;51.034;5.262;2022-09-17T02:40:06;12.40;79.10
12839;DHT22;6486;51.034;5.262;2022-09-17T02:51:23;12.30;79.20
12839;DHT22;6486;51.034;5.262;2022-09-17T02:54:26;12.40;79.30
12839;DHT22;6486;51.034;5.262;2022-09-17T02:57:35;12.40;79.40
12839;DHT22;6486;51.034;5.262;2022-09-17T03:00:19;12.40;79.40
12839;DHT22;6486;51.034;5.262;2022-09-17T03:03:02;12.40;79.50
12839;DHT22;6486;51.034;5.262;2022-09-17T03:05:31;12.40;79.60
12839;DHT22;6486;51.034;5.262;2022-09-17T03:07:59;12.40;79.60
12839;DHT22;6486;51.034;5.262;2022-09-17T03:10:25;12.40;79.70
12839;DHT22;6486;51.034;5.262;2022-09-17T03:12:54;12.30;79.70
12839;DHT22;6486;51.034;5.262;2022-09-17T03:15:20;12.30;79.80
12839;DHT22;6486;51.034;5.262;2022-09-17T03:17:45;12.30;79.80
12839;DHT22;6486;51.034;5.262;2022-09-17T03:20:11;12.30;80.00
12839;DHT22;6486;51.034;5.262;2022-09-17T03:22:36;12.30;80.00
12839;DHT22;6486;51.034;5.262;2022-09-17T03:25:02;12.30;79.90
12839;DHT22;6486;51.034;5.262;2022-09-17T03:27:28;12.40;80.00
12839;DHT22;6486;51.034;5.262;2022-09-17T03:29:53;12.40;79.80
12839;DHT22;6486;51.034;5.262;2022-09-17T03:32:19;12.40;79.90
12839;DHT22;6486;51.034;5.262;2022-09-17T03:34:45;12.40;79.90
12839;DHT22;6486;51.034;5.262;2022-09-17T03:37:11;12.40;79.80
12839;DHT22;6486;51.034;5.262;2022-09-17T03:39:37;12.40;79.80
12839;DHT22;6486;51.034;5.262;2022-09-17T03:42:03;12.40;79.80
12839;DHT22;6486;51.034;5.262;2022-09-17T03:44:28;12.40;79.70
12839;DHT22;6486;51.034;5.262;2022-09-17T03:46:54;12.40;79.70
12839;DHT22;6486;51.034;5.262;2022-09-17T03:49:21;12.40;79.60
12839;DHT22;6486;51.034;5.262;2022-09-17T03:51:48;12.40;79.60
12839;DHT22;6486;51.034;5.262;2022-09-17T03:54:14;12.40;79.50
12839;DHT22;6486;51.034;5.262;2022-09-17T03:56:39;12.40;79.40
12839;DHT22;6486;51.034;5.262;2022-09-17T03:59:05;12.40;79.40
12839;DHT22;6486;51.034;5.262;2022-09-17T04:01:31;12.40;79.40
12839;DHT22;6486;51.034;5.262;2022-09-17T04:03:56;12.30;79.30
12839;DHT22;6486;51.034;5.262;2022-09-17T04:06:22;12.30;79.30
12839;DHT22;6486;51.034;5.262;2022-09-17T04:08:47;12.30;79.30
12839;DHT22;6486;51.034;5.262;2022-09-17T04:11:13;12.30;79.20
12839;DHT22;6486;51.034;5.262;2022-09-17T04:13:39;12.30;79.20
12839;DHT22;6486;51.034;5.262;2022-09-17T04:16:04;12.40;79.30
12839;DHT22;6486;51.034;5.262;2022-09-17T04:18:30;12.30;79.10
12839;DHT22;6486;51.034;5.262;2022-09-17T04:20:56;12.30;79.10
12839;DHT22;6486;51.034;5.262;2022-09-17T04:23:21;12.20;79.10
12839;DHT22;6486;51.034;5.262;2022-09-17T04:25:48;12.20;79.20
12839;DHT22;6486;51.034;5.262;2022-09-17T04:28:13;12.20;79.20
12839;DHT22;6486;51.034;5.262;2022-09-17T04:30:39;12.20;79.40
12839;DHT22;6486;51.034;5.262;2022-09-17T04:33:07;12.20;79.20
12839;DHT22;6486;51.034;5.262;2022-09-17T04:35:33;12.20;79.20
12839;DHT22;6486;51.034;5.262;2022-09-17T04:37:58;12.20;79.30
12839;DHT22;6486;51.034;5.262;2022-09-17T04:40:25;12.20;79.40
12839;DHT22;6486;51.034;5.262;2022-09-17T04:42:52;12.20;79.40
12839;DHT22;6486;51.034;5.262;2022-09-17T04:45:18;12.20;79.40
12839;DHT22;6486;51.034;5.262;2022-09-17T04:47:44;12.20;79.30
12839;DHT22;6486;51.034;5.262;2022-09-17T04:50:09;12.20;79.40
12839;DHT22;6486;51.034;5.262;2022-09-17T04:52:35;12.20;79.20
12839;DHT22;6486;51.034;5.262;2022-09-17T04:55:01;12.20;79.20
12839;DHT22;6486;51.034;5.262;2022-09-17T04:57:26;12.10;79.00
12839;DHT22;6486;51.034;5.262;2022-09-17T04:59:52;12.20;79.20
12839;DHT22;6486;51.034;5.262;2022-09-17T05:02:18;12.10;79.10
12839;DHT22;6486;51.034;5.262;2022-09-17T05:04:43;12.10;79.10
12839;DHT22;6486;51.034;5.262;2022-09-17T05:07:09;12.10;79.10
12839;DHT22;6486;51.034;5.262;2022-09-17T05:09:34;12.10;79.00
12839;DHT22;6486;51.034;5.262;2022-09-17T05:12:00;12.10;79.10
12839;DHT22;6486;51.034;5.262;2022-09-17T05:14:26;12.10;79.00
12839;DHT22;6486;51.034;5.262;2022-09-17T05:16:51;12.00;79.60
12839;DHT22;6486;51.034;5.262;2022-09-17T05:19:17;12.00;79.70
12839;DHT22;6486;51.034;5.262;2022-09-17T05:21:43;11.90;79.20
12839;DHT22;6486;51.034;5.262;2022-09-17T05:24:08;11.90;79.30
12839;DHT22;6486;51.034;5.262;2022-09-17T05:26:34;11.90;79.30
12839;DHT22;6486;51.034;5.262;2022-09-17T05:28:59;11.90;79.30
12839;DHT22;6486;51.034;5.262;2022-09-17T05:31:25;11.80;79.20
12839;DHT22;6486;51.034;5.262;2022-09-17T05:33:51;11.90;79.20
12839;DHT22;6486;51.034;5.262;2022-09-17T05:36:16;11.90;79.20
12839;DHT22;6486;51.034;5.262;2022-09-17T05:38:42;11.90;79.20
12839;DHT22;6486;51.034;5.262;2022-09-17T05:41:07;11.90;79.20
12839;DHT22;6486;51.034;5.262;2022-09-17T05:43:33;11.90;79.30
12839;DHT22;6486;51.034;5.262;2022-09-17T05:46:03;11.90;79.30
12839;DHT22;6486;51.034;5.262;2022-09-17T05:48:29;11.90;79.40
12839;DHT22;6486;51.034;5.262;2022-09-17T05:50:55;11.90;79.60
12839;DHT22;6486;51.034;5.262;2022-09-17T05:53:20;11.90;79.60
12839;DHT22;6486;51.034;5.262;2022-09-17T05:55:46;11.90;79.70
12839;DHT22;6486;51.034;5.262;2022-09-17T05:58:14;11.90;79.70
12839;DHT22;6486;51.034;5.262;2022-09-17T06:00:40;11.90;79.70
12839;DHT22;6486;51.034;5.262;2022-09-17T06:03:10;11.90;79.70
12839;DHT22;6486;51.034;5.262;2022-09-17T06:05:36;12.00;79.80
12839;DHT22;6486;51.034;5.262;2022-09-17T06:08:02;12.00;79.80
12839;DHT22;6486;51.034;5.262;2022-09-17T06:10:28;12.00;79.80
12839;DHT22;6486;51.034;5.262;2022-09-17T06:12:57;12.10;79.90
12839;DHT22;6486;51.034;5.262;2022-09-17T06:15:23;12.10;79.90
12839;DHT22;6486;51.034;5.262;2022-09-17T06:17:49;12.10;79.90
12839;DHT22;6486;51.034;5.262;2022-09-17T06:20:14;12.10;80.00
12839;DHT22;6486;51.034;5.262;2022-09-17T06:22:41;12.10;80.10
12839;DHT22;6486;51.034;5.262;2022-09-17T06:25:07;12.10;80.10
12839;DHT22;6486;51.034;5.262;2022-09-17T06:27:33;12.10;80.10
12839;DHT22;6486;51.034;5.262;2022-09-17T06:29:59;12.20;80.30
12839;DHT22;6486;51.034;5.262;2022-09-17T06:32:25;12.20;80.30
12839;DHT22;6486;51.034;5.262;2022-09-17T06:34:51;12.10;80.30
12839;DHT22;6486;51.034;5.262;2022-09-17T06:37:17;12.10;80.40
12839;DHT22;6486;51.034;5.262;2022-09-17T06:39:42;12.10;80.60
12839;DHT22;6486;51.034;5.262;2022-09-17T06:42:09;12.10;80.70
12839;DHT22;6486;51.034;5.262;2022-09-17T06:44:34;12.10;80.80
12839;DHT22;6486;51.034;5.262;2022-09-17T06:47:00;12.10;80.80
12839;DHT22;6486;51.034;5.262;2022-09-17T06:49:26;12.20;80.90
12839;DHT22;6486;51.034;5.262;2022-09-17T06:51:53;12.10;80.80
12839;DHT22;6486;51.034;5.262;2022-09-17T06:54:18;12.20;80.80
12839;DHT22;6486;51.034;5.262;2022-09-17T06:56:45;12.30;80.60
12839;DHT22;6486;51.034;5.262;2022-09-17T06:59:12;12.40;80.50
12839;DHT22;6486;51.034;5.262;2022-09-17T07:01:37;12.50;80.40
12839;DHT22;6486;51.034;5.262;2022-09-17T07:04:03;12.60;80.40
12839;DHT22;6486;51.034;5.262;2022-09-17T07:06:30;12.70;80.40
12839;DHT22;6486;51.034;5.262;2022-09-17T07:08:57;12.70;80.30
12839;DHT22;6486;51.034;5.262;2022-09-17T07:11:23;12.80;80.30
12839;DHT22;6486;51.034;5.262;2022-09-17T07:13:49;12.90;80.10
12839;DHT22;6486;51.034;5.262;2022-09-17T07:16:14;13.00;80.00
12839;DHT22;6486;51.034;5.262;2022-09-17T07:18:40;13.10;79.80
12839;DHT22;6486;51.034;5.262;2022-09-17T07:21:06;13.20;79.80
12839;DHT22;6486;51.034;5.262;2022-09-17T07:23:34;13.30;79.60
12839;DHT22;6486;51.034;5.262;2022-09-17T07:26:02;13.40;79.60
12839;DHT22;6486;51.034;5.262;2022-09-17T07:28:29;13.50;79.60
12839;DHT22;6486;51.034;5.262;2022-09-17T07:30:55;13.60;79.50
12839;DHT22;6486;51.034;5.262;2022-09-17T07:33:23;13.70;79.40
12839;DHT22;6486;51.034;5.262;2022-09-17T07:38:18;13.90;79.20
12839;DHT22;6486;51.034;5.262;2022-09-17T07:40:58;13.80;79.10
12839;DHT22;6486;51.034;5.262;2022-09-17T07:43:25;13.80;79.20
12839;DHT22;6486;51.034;5.262;2022-09-17T07:45:52;13.90;79.30
12839;DHT22;6486;51.034;5.262;2022-09-17T07:48:18;13.90;79.20
12839;DHT22;6486;51.034;5.262;2022-09-17T07:50:44;13.90;79.20
12839;DHT22;6486;51.034;5.262;2022-09-17T07:53:10;13.90;79.20
12839;DHT22;6486;51.034;5.262;2022-09-17T07:55:36;13.90;79.20
12839;DHT22;6486;51.034;5.262;2022-09-17T07:58:01;14.00;79.10
12839;DHT22;6486;51.034;5.262;2022-09-17T08:00:27;13.90;78.80
12839;DHT22;6486;51.034;5.262;2022-09-17T08:02:56;13.90;78.80
12839;DHT22;6486;51.034;5.262;2022-09-17T08:05:23;14.00;78.80
12839;DHT22;6486;51.034;5.262;2022-09-17T08:07:53;14.00;78.80
12839;DHT22;6486;51.034;5.262;2022-09-17T08:10:19;14.00;78.70
12839;DHT22;6486;51.034;5.262;2022-09-17T08:12:54;14.10;78.70
12839;DHT22;6486;51.034;5.262;2022-09-17T08:15:21;14.10;79.50
12839;DHT22;6486;51.034;5.262;2022-09-17T08:17:47;14.10;78.80
12839;DHT22;6486;51.034;5.262;2022-09-17T08:20:14;14.10;78.70
12839;DHT22;6486;51.034;5.262;2022-09-17T08:22:40;14.10;78.70
12839;DHT22;6486;51.034;5.262;2022-09-17T08:25:07;14.10;78.60
12839;DHT22;6486;51.034;5.262;2022-09-17T08:27:33;14.20;78.60
12839;DHT22;6486;51.034;5.262;2022-09-17T08:29:59;14.20;78.40
12839;DHT22;6486;51.034;5.262;2022-09-17T08:32:24;14.30;78.40
12839;DHT22;6486;51.034;5.262;2022-09-17T08:34:50;14.60;78.20
12839;DHT22;6486;51.034;5.262;2022-09-17T08:37:18;14.80;78.00
12839;DHT22;6486;51.034;5.262;2022-09-17T08:39:44;15.10;77.80
12839;DHT22;6486;51.034;5.262;2022-09-17T08:42:20;15.20;77.40
12839;DHT22;6486;51.034;5.262;2022-09-17T08:44:50;15.40;77.00
12839;DHT22;6486;51.034;5.262;2022-09-17T08:47:49;15.80;77.00
12839;DHT22;6486;51.034;5.262;2022-09-17T08:50:28;15.70;76.60
12839;DHT22;6486;51.034;5.262;2022-09-17T09:07:11;15.60;74.80
12839;DHT22;6486;51.034;5.262;2022-09-17T09:09:43;15.60;75.00
12839;DHT22;6486;51.034;5.262;2022-09-17T09:12:23;15.60;74.80
12839;DHT22;6486;51.034;5.262;2022-09-17T09:15:02;15.60;74.80
12839;DHT22;6486;51.034;5.262;2022-09-17T09:17:42;15.50;74.70
12839;DHT22;6486;51.034;5.262;2022-09-17T09:20:17;15.40;74.60
12839;DHT22;6486;51.034;5.262;2022-09-17T09:22:49;15.30;74.50
12839;DHT22;6486;51.034;5.262;2022-09-17T09:25:19;15.20;74.40
12839;DHT22;6486;51.034;5.262;2022-09-17T09:33:34;15.40;74.10
12839;DHT22;6486;51.034;5.262;2022-09-17T09:36:00;15.70;73.60
12839;DHT22;6486;51.034;5.262;2022-09-17T09:38:41;16.00;72.80
12839;DHT22;6486;51.034;5.262;2022-09-17T09:41:11;16.20;71.60
12839;DHT22;6486;51.034;5.262;2022-09-17T09:43:49;16.50;71.50
12839;DHT22;6486;51.034;5.262;2022-09-17T09:49:25;16.70;70.30
12839;DHT22;6486;51.034;5.262;2022-09-17T09:59:24;16.80;69.40
12839;DHT22;6486;51.034;5.262;2022-09-17T10:01:51;16.80;69.10
12839;DHT22;6486;51.034;5.262;2022-09-17T10:04:27;17.00;68.90
12839;DHT22;6486;51.034;5.262;2022-09-17T10:06:59;17.00;68.50
12839;DHT22;6486;51.034;5.262;2022-09-17T10:09:27;17.00;68.00
12839;DHT22;6486;51.034;5.262;2022-09-17T10:14:39;16.80;66.90
12839;DHT22;6486;51.034;5.262;2022-09-17T10:17:24;16.60;66.90
12839;DHT22;6486;51.034;5.262;2022-09-17T10:22:45;16.30;67.20
12839;DHT22;6486;51.034;5.262;2022-09-17T10:25:19;16.20;67.50
12839;DHT22;6486;51.034;5.262;2022-09-17T10:27:47;16.10;68.00
12839;DHT22;6486;51.034;5.262;2022-09-17T10:30:15;16.00;69.00
12839;DHT22;6486;51.034;5.262;2022-09-17T10:32:42;15.90;68.40
12839;DHT22;6486;51.034;5.262;2022-09-17T10:37:45;15.90;68.90
12839;DHT22;6486;51.034;5.262;2022-09-17T10:42:46;16.20;69.40
12839;DHT22;6486;51.034;5.262;2022-09-17T10:45:38;16.30;69.60
12839;DHT22;6486;51.034;5.262;2022-09-17T10:48:04;16.40;69.90
12839;DHT22;6486;51.034;5.262;2022-09-17T10:50:36;16.70;70.20
12839;DHT22;6486;51.034;5.262;2022-09-17T10:53:05;16.90;69.50
12839;DHT22;6486;51.034;5.262;2022-09-17T10:55:36;17.00;69.20
12839;DHT22;6486;51.034;5.262;2022-09-17T11:19:54;17.20;65.00
12839;DHT22;6486;51.034;5.262;2022-09-17T11:25:21;17.20;64.00
12839;DHT22;6486;51.034;5.262;2022-09-17T11:36:00;17.20;62.90
12839;DHT22;6486;51.034;5.262;2022-09-17T11:41:09;17.10;62.90
12839;DHT22;6486;51.034;5.262;2022-09-17T11:43:39;17.20;62.60
12839;DHT22;6486;51.034;5.262;2022-09-17T11:48:50;17.70;62.60
12839;DHT22;6486;51.034;5.262;2022-09-17T11:56:39;18.30;61.90
12839;DHT22;6486;51.034;5.262;2022-09-17T11:59:24;18.20;61.40
12839;DHT22;6486;51.034;5.262;2022-09-17T12:07:44;17.80;60.80
12839;DHT22;6486;51.034;5.262;2022-09-17T12:13:15;17.70;61.20
12839;DHT22;6486;51.034;5.262;2022-09-17T12:15:45;17.80;61.00
12839;DHT22;6486;51.034;5.262;2022-09-17T12:18:21;17.80;60.90
12839;DHT22;6486;51.034;5.262;2022-09-17T12:20:51;17.90;60.80
12839;DHT22;6486;51.034;5.262;2022-09-17T12:23:33;17.90;60.40
12839;DHT22;6486;51.034;5.262;2022-09-17T12:26:06;17.90;60.50
12839;DHT22;6486;51.034;5.262;2022-09-17T12:28:47;17.90;60.50
12839;DHT22;6486;51.034;5.262;2022-09-17T12:32:03;17.90;60.40
12839;DHT22;6486;51.034;5.262;2022-09-17T12:37:15;17.90;59.70
12839;DHT22;6486;51.034;5.262;2022-09-17T12:42:42;18.30;59.00
12839;DHT22;6486;51.034;5.262;2022-09-17T12:45:38;18.30;58.70
12839;DHT22;6486;51.034;5.262;2022-09-17T12:50:53;18.70;58.20
12839;DHT22;6486;51.034;5.262;2022-09-17T12:53:29;18.80;57.70
12839;DHT22;6486;51.034;5.262;2022-09-17T13:03:51;19.40;58.20
12839;DHT22;6486;51.034;5.262;2022-09-17T13:18:13;19.00;58.30
12839;DHT22;6486;51.034;5.262;2022-09-17T13:23:12;18.50;59.40
12839;DHT22;6486;51.034;5.262;2022-09-17T13:25:50;18.30;60.00
12839;DHT22;6486;51.034;5.262;2022-09-17T13:28:17;18.30;60.80
12839;DHT22;6486;51.034;5.262;2022-09-17T13:30:58;18.20;61.20
12839;DHT22;6486;51.034;5.262;2022-09-17T13:36:38;18.20;62.40
12839;DHT22;6486;51.034;5.262;2022-09-17T13:39:06;18.10;63.00
12839;DHT22;6486;51.034;5.262;2022-09-17T13:41:36;17.90;63.30
12839;DHT22;6486;51.034;5.262;2022-09-17T13:44:06;17.80;63.80
12839;DHT22;6486;51.034;5.262;2022-09-17T13:46:33;17.60;64.20
12839;DHT22;6486;51.034;5.262;2022-09-17T13:49:02;17.30;64.70
12839;DHT22;6486;51.034;5.262;2022-09-17T13:54:06;16.90;66.00
12839;DHT22;6486;51.034;5.262;2022-09-17T13:56:45;16.90;65.60
12839;DHT22;6486;51.034;5.262;2022-09-17T14:01:56;17.00;66.10
12839;DHT22;6486;51.034;5.262;2022-09-17T14:09:56;17.40;66.90
12839;DHT22;6486;51.034;5.262;2022-09-17T14:15:33;17.70;67.10
12839;DHT22;6486;51.034;5.262;2022-09-17T14:18:00;17.90;67.20
12839;DHT22;6486;51.034;5.262;2022-09-17T14:20:28;18.00;67.20
12839;DHT22;6486;51.034;5.262;2022-09-17T14:22:56;17.80;67.30
12839;DHT22;6486;51.034;5.262;2022-09-17T14:25:44;17.80;68.30
12839;DHT22;6486;51.034;5.262;2022-09-17T14:31:17;18.10;68.20
12839;DHT22;6486;51.034;5.262;2022-09-17T14:33:45;18.10;68.80
12839;DHT22;6486;51.034;5.262;2022-09-17T14:36:15;18.10;67.90
12839;DHT22;6486;51.034;5.262;2022-09-17T14:38:43;18.20;67.70
12839;DHT22;6486;51.034;5.262;2022-09-17T14:48:54;18.80;66.20
12839;DHT22;6486;51.034;5.262;2022-09-17T14:51:24;19.00;65.80
12839;DHT22;6486;51.034;5.262;2022-09-17T14:54:31;19.10;65.70
12839;DHT22;6486;51.034;5.262;2022-09-17T14:56:59;19.30;65.70
12839;DHT22;6486;51.034;5.262;2022-09-17T15:01:53;19.10;65.90
12839;DHT22;6486;51.034;5.262;2022-09-17T15:04:23;19.00;65.70
12839;DHT22;6486;51.034;5.262;2022-09-17T15:06:48;18.80;65.20
12839;DHT22;6486;51.034;5.262;2022-09-17T15:09:32;18.60;65.20
12839;DHT22;6486;51.034;5.262;2022-09-17T15:11:59;18.40;65.70
12839;DHT22;6486;51.034;5.262;2022-09-17T15:14:36;18.30;65.90
12839;DHT22;6486;51.034;5.262;2022-09-17T15:17:04;18.20;66.00
12839;DHT22;6486;51.034;5.262;2022-09-17T15:19:39;18.10;66.10
12839;DHT22;6486;51.034;5.262;2022-09-17T15:22:12;17.90;65.90
12839;DHT22;6486;51.034;5.262;2022-09-17T15:24:46;17.90;66.20
12839;DHT22;6486;51.034;5.262;2022-09-17T15:29:48;18.80;67.00
12839;DHT22;6486;51.034;5.262;2022-09-17T15:32:14;19.10;66.50
12839;DHT22;6486;51.034;5.262;2022-09-17T15:34:41;19.60;66.40
12839;DHT22;6486;51.034;5.262;2022-09-17T15:39:46;21.20;64.20
12839;DHT22;6486;51.034;5.262;2022-09-17T15:42:33;22.30;62.90
12839;DHT22;6486;51.034;5.262;2022-09-17T15:45:21;23.30;60.80
12839;DHT22;6486;51.034;5.262;2022-09-17T15:47:52;23.70;59.50
12839;DHT22;6486;51.034;5.262;2022-09-17T15:50:33;24.20;58.50
12839;DHT22;6486;51.034;5.262;2022-09-17T15:55:42;26.10;53.30
12839;DHT22;6486;51.034;5.262;2022-09-17T15:58:27;27.40;52.10
12839;DHT22;6486;51.034;5.262;2022-09-17T16:08:54;29.30;41.70
12839;DHT22;6486;51.034;5.262;2022-09-17T16:11:22;30.10;40.60
12839;DHT22;6486;51.034;5.262;2022-09-17T16:13:49;30.90;39.80
12839;DHT22;6486;51.034;5.262;2022-09-17T16:16:36;31.20;38.40
12839;DHT22;6486;51.034;5.262;2022-09-17T16:19:03;29.90;37.80
12839;DHT22;6486;51.034;5.262;2022-09-17T16:21:28;28.00;38.90
12839;DHT22;6486;51.034;5.262;2022-09-17T16:23:54;26.20;40.90
12839;DHT22;6486;51.034;5.262;2022-09-17T16:26:30;24.60;42.40
12839;DHT22;6486;51.034;5.262;2022-09-17T16:29:02;23.30;43.40
12839;DHT22;6486;51.034;5.262;2022-09-17T16:31:29;22.00;44.60
12839;DHT22;6486;51.034;5.262;2022-09-17T16:33:54;21.20;46.20
12839;DHT22;6486;51.034;5.262;2022-09-17T16:36:20;20.50;47.40
12839;DHT22;6486;51.034;5.262;2022-09-17T16:38:47;19.90;48.50
12839;DHT22;6486;51.034;5.262;2022-09-17T16:41:12;19.50;49.70
12839;DHT22;6486;51.034;5.262;2022-09-17T16:43:38;19.10;50.80
12839;DHT22;6486;51.034;5.262;2022-09-17T16:46:08;18.80;51.70
12839;DHT22;6486;51.034;5.262;2022-09-17T16:48:35;18.50;52.50
12839;DHT22;6486;51.034;5.262;2022-09-17T16:51:08;18.30;53.10
12839;DHT22;6486;51.034;5.262;2022-09-17T16:53:33;18.00;54.00
12839;DHT22;6486;51.034;5.262;2022-09-17T16:55:59;17.80;54.60
12839;DHT22;6486;51.034;5.262;2022-09-17T16:58:25;17.70;55.20
12839;DHT22;6486;51.034;5.262;2022-09-17T17:00:51;17.60;55.40
12839;DHT22;6486;51.034;5.262;2022-09-17T17:03:16;17.50;55.80
12839;DHT22;6486;51.034;5.262;2022-09-17T17:05:42;17.40;56.10
12839;DHT22;6486;51.034;5.262;2022-09-17T17:08:08;17.30;56.50
12839;DHT22;6486;51.034;5.262;2022-09-17T17:10:34;17.10;56.50
12839;DHT22;6486;51.034;5.262;2022-09-17T17:13:00;16.90;57.50
12839;DHT22;6486;51.034;5.262;2022-09-17T17:15:26;16.80;57.20
12839;DHT22;6486;51.034;5.262;2022-09-17T17:17:51;16.80;57.60
12839;DHT22;6486;51.034;5.262;2022-09-17T17:20:17;16.70;57.80
12839;DHT22;6486;51.034;5.262;2022-09-17T17:22:43;16.60;58.10
12839;DHT22;6486;51.034;5.262;2022-09-17T17:25:11;16.60;59.00
12839;DHT22;6486;51.034;5.262;2022-09-17T17:27:36;16.40;59.00
12839;DHT22;6486;51.034;5.262;2022-09-17T17:30:04;16.40;58.80
12839;DHT22;6486;51.034;5.262;2022-09-17T17:32:32;16.30;59.10
12839;DHT22;6486;51.034;5.262;2022-09-17T17:34:57;16.20;59.20
12839;DHT22;6486;51.034;5.262;2022-09-17T17:37:23;16.20;59.50
12839;DHT22;6486;51.034;5.262;2022-09-17T17:39:49;16.10;59.70
12839;DHT22;6486;51.034;5.262;2022-09-17T17:42:14;16.00;59.80
12839;DHT22;6486;51.034;5.262;2022-09-17T17:44:40;15.90;60.00
12839;DHT22;6486;51.034;5.262;2022-09-17T17:47:06;15.90;60.40
12839;DHT22;6486;51.034;5.262;2022-09-17T17:49:32;15.80;60.50
12839;DHT22;6486;51.034;5.262;2022-09-17T17:51:58;15.80;60.80
12839;DHT22;6486;51.034;5.262;2022-09-17T17:54:24;15.80;61.10
12839;DHT22;6486;51.034;5.262;2022-09-17T17:56:52;15.70;61.20
12839;DHT22;6486;51.034;5.262;2022-09-17T17:59:18;15.70;61.50
12839;DHT22;6486;51.034;5.262;2022-09-17T18:01:44;15.70;62.50
12839;DHT22;6486;51.034;5.262;2022-09-17T18:04:09;15.70;62.10
12839;DHT22;6486;51.034;5.262;2022-09-17T18:06:35;15.60;62.20
12839;DHT22;6486;51.034;5.262;2022-09-17T18:09:01;15.70;62.50
12839;DHT22;6486;51.034;5.262;2022-09-17T18:11:28;15.70;62.50
12839;DHT22;6486;51.034;5.262;2022-09-17T18:13:56;15.70;62.40
12839;DHT22;6486;51.034;5.262;2022-09-17T18:16:23;15.70;62.50
12839;DHT22;6486;51.034;5.262;2022-09-17T18:18:48;15.70;62.60
12839;DHT22;6486;51.034;5.262;2022-09-17T18:21:20;15.70;62.60
12839;DHT22;6486;51.034;5.262;2022-09-17T18:23:47;15.70;62.90
12839;DHT22;6486;51.034;5.262;2022-09-17T18:26:19;15.70;63.00
12839;DHT22;6486;51.034;5.262;2022-09-17T18:28:45;15.70;63.10
12839;DHT22;6486;51.034;5.262;2022-09-17T18:31:23;15.60;63.40
12839;DHT22;6486;51.034;5.262;2022-09-17T18:34:03;15.60;63.60
12839;DHT22;6486;51.034;5.262;2022-09-17T18:36:31;15.60;63.70
12839;DHT22;6486;51.034;5.262;2022-09-17T18:38:59;15.60;63.80
12839;DHT22;6486;51.034;5.262;2022-09-17T18:41:29;15.60;63.90
12839;DHT22;6486;51.034;5.262;2022-09-17T18:43:56;15.50;64.00
12839;DHT22;6486;51.034;5.262;2022-09-17T18:46:22;15.50;64.20
12839;DHT22;6486;51.034;5.262;2022-09-17T18:48:55;15.40;64.50
12839;DHT22;6486;51.034;5.262;2022-09-17T18:51:21;15.40;64.80
12839;DHT22;6486;51.034;5.262;2022-09-17T18:53:49;15.40;65.00
12839;DHT22;6486;51.034;5.262;2022-09-17T18:56:16;15.40;65.80
12839;DHT22;6486;51.034;5.262;2022-09-17T18:58:47;15.40;65.60
12839;DHT22;6486;51.034;5.262;2022-09-17T19:01:14;15.30;65.70
12839;DHT22;6486;51.034;5.262;2022-09-17T19:03:39;15.30;66.10
12839;DHT22;6486;51.034;5.262;2022-09-17T19:06:07;15.20;66.20
12839;DHT22;6486;51.034;5.262;2022-09-17T19:08:33;15.20;66.60
12839;DHT22;6486;51.034;5.262;2022-09-17T19:10:59;15.10;66.80
12839;DHT22;6486;51.034;5.262;2022-09-17T19:13:26;15.00;67.00
12839;DHT22;6486;51.034;5.262;2022-09-17T19:15:59;14.90;67.30
12839;DHT22;6486;51.034;5.262;2022-09-17T19:18:25;14.90;67.70
12839;DHT22;6486;51.034;5.262;2022-09-17T19:20:51;14.70;68.00
12839;DHT22;6486;51.034;5.262;2022-09-17T19:23:16;14.70;68.30
12839;DHT22;6486;51.034;5.262;2022-09-17T19:25:42;14.70;68.60